0TX1 – Local Weather Observations

Pecan Plantation / Sawgrass Ct

This weather station is operated by a private user located just north of the field. See WeatherUnderground for the full data feed and other nearby stations.

Last updated:
2018-03-19 02:56:24 (9:56 pm)

Temperature: 64.0 °F

Sunrise / Sunset: 7:34 am / 7:42 pm

Moonrise / Moonset: 8:31 am / 9:00 pm

Winds gusting from the Southwest at 5.0 mph

Nearby METARs

KGDJ 190235Z AUTO 13009KT 10SM CLR 20/16 A2967 RMK AO2 T01950159

KCPT 190255Z AUTO 17007KT 9SM CLR 17/17 A2968 RMK AO2

KFWS 190255Z AUTO 19004KT 10SM CLR 19/17 A2967 RMK AO2 T01910166